METAR Data
IDs: Format: Raw Decoded Include TAF

Data at: 1509 UTC 18 Aug 2019

PAPH 181456Z AUTO 04008KT 10SM CLR 09/07 A3019 RMK AO2 SLP227 60000 T00890072 57011
PAPH 181356Z AUTO 03009KT 10SM CLR 09/08 A3020 RMK AO2 SLP231 T00940078
PAPH 181256Z AUTO 03009KT 10SM CLR 11/11 A3022 RMK AO2 RAE15 SLP235 P0000 T01110106
PAPH 181215Z AUTO 05004KT 10SM FEW001 11/11 A3023 RMK AO2 RAE15 P0000
PAPH 181207Z AUTO 04006KT 2SM -RA BR FEW001 11/11 A3023 RMK AO2 P0000
PAPH 181203Z AUTO 05007KT 1SM -RA BR VV001 10/10 A3023 RMK AO2 P0000
PAPH 181156Z AUTO 03007KT 1/2SM -RA FG VV001 10/09 A3023 RMK AO2 RAB56 SLP238 P0000 60000 T01000094 10144 20094 55011
PAPH 181148Z AUTO 05005KT 3/4SM BR VV001 09/09 A3023 RMK AO2
PAPH 181145Z AUTO 04006KT 1 1/2SM BR CLR 09/09 A3023 RMK AO2
PAPH 181118Z AUTO 03009KT 3SM BR CLR 10/10 A3024 RMK AO2
PAPH 181108Z AUTO 04008KT 1 3/4SM BR CLR 09/09 A3024 RMK AO2
PAPH 181056Z AUTO 02008KT 10SM CLR 10/10 A3024 RMK AO2 SLP242 T01000100
PAPH 181047Z AUTO 03007KT 7SM CLR 10/10 A3024 RMK AO2
PAPH 181040Z AUTO 04007KT 2 1/2SM BR CLR 10/10 A3025 RMK AO2
PAPH 181037Z AUTO 04007KT 1SM BR CLR 10/10 A3025 RMK AO2
PAPH 181032Z AUTO 02007KT 1/2SM FG CLR 10/10 A3025 RMK AO2
PAPH 181028Z AUTO 03006KT 1/4SM FG VV002 10/10 A3025 RMK AO2
PAPH 181020Z AUTO 04006KT 1/2SM FG VV001 11/10 A3025 RMK AO2
PAPH 180956Z AUTO 00000KT 1/4SM FG BKN001 11/11 A3026 RMK AO2 SLP250 T01060106
PAPH 180951Z AUTO 09003KT 1/4SM FG VV001 11/11 A3026 RMK AO2
PAPH 180946Z AUTO 00000KT 3/4SM BR VV002 12/12 A3026 RMK AO2
PAPH 180918Z AUTO 00000KT 1 1/4SM BR CLR 11/11 A3027 RMK AO2
PAPH 180913Z AUTO 00000KT 3/4SM BR CLR 11/11 A3026 RMK AO2
PAPH 180907Z AUTO 00000KT 1 1/2SM BR CLR 11/10 A3027 RMK AO2
PAPH 180856Z AUTO 11003KT 5SM BR CLR 11/11 A3027 RMK AO2 SLP255 T01060106 58002
PAPH 180851Z AUTO 11004KT 3SM BR CLR 11/11 A3028 RMK AO2
PAPH 180841Z AUTO 15003KT 1 3/4SM BR CLR 09/09 A3027 RMK AO2
PAPH 180816Z AUTO 04007KT 3SM BR CLR 10/10 A3028 RMK AO2
PAPH 180806Z AUTO 10004KT 1 3/4SM BR CLR 10/10 A3028 RMK AO2 VIS 1V4
PAPH 180756Z AUTO 06003KT 7SM CLR 11/11 A3028 RMK AO2 SLP256 T01110106 401890083
PAPH 180656Z AUTO 01006KT 10SM CLR 13/12 A3029 RMK AO2 SLP258 T01280117
PAPH 180556Z AUTO 36010KT 10SM CLR 14/13 A3028 RMK AO2 SLP257 T01440128 10189 20144 56009
PAPH 180456Z AUTO 35011KT 10SM CLR 16/13 A3029 RMK AO2 SLP259 T01610133
PAPH 180356Z AUTO 36014KT 10SM CLR 18/13 A3029 RMK AO2 SLP260 T01780133
PAPH 180256Z AUTO 36013KT 10SM CLR 18/13 A3031 RMK AO2 SLP266 T01830133 58014
PAPH 180156Z AUTO 01015KT 10SM SCT031 19/13 A3032 RMK AO2 SLP271 T01890133
PAPH 180056Z AUTO 36013KT 10SM BKN033 18/13 A3034 RMK AO2 SLP278 T01830133
PAPH 172356Z AUTO 34012KT 10SM OVC031 18/14 A3035 RMK AO2 SLP280 T01830139 10183 20150 58012
PAPH 172256Z AUTO 32011KT 10SM OVC031 18/14 A3036 RMK AO2 SLP284 T01780139
PAPH 172156Z AUTO 31008KT 10SM FEW013 OVC037 17/13 A3038 RMK AO2 SLP290 T01720133
PAPH 172136Z AUTO 30010KT 10SM SCT013 OVC037 17/13 A3038 RMK AO2
PAPH 172056Z AUTO 30008KT 10SM BKN015 BKN037 17/13 A3038 RMK AO2 SLP292 T01670133 58009
PAPH 171956Z AUTO 29007KT 10SM OVC015 16/13 A3040 RMK AO2 SLP296 T01610128
PAPH 171924Z AUTO 29006KT 10SM OVC015 16/13 A3040 RMK AO2
PAPH 171915Z AUTO 30008KT 10SM OVC013 16/12 A3040 RMK AO2
PAPH 171856Z AUTO 29003KT 10SM OVC015 16/12 A3041 RMK AO2 SLP300 T01560122
PAPH 171756Z AUTO 28007KT 10SM OVC015 16/12 A3041 RMK AO2 SLP301 T01560122 10156 20133 56007
PAPH 171726Z AUTO 27005KT 10SM OVC015 15/12 A3042 RMK AO2
PAPH 171656Z AUTO 29003KT 10SM OVC013 14/12 A3042 RMK AO2 SLP305 T01440117
PAPH 171556Z AUTO 27006KT 10SM OVC013 14/12 A3042 RMK AO2 SLP304 T01390117
PAPH 171456Z AUTO 29005KT 10SM OVC011 13/12 A3043 RMK AO2 SLP308 T01330117 56005
PAPH 171356Z AUTO 29006KT 10SM OVC013 13/11 A3044 RMK AO2 SLP310 T01330111
PAPH 171353Z AUTO 28007KT 10SM OVC013 13/12 A3044 RMK AO2
PAPH 171303Z AUTO 31008KT 10SM OVC015 14/12 A3044 RMK AO2
PAPH 171256Z AUTO 32007KT 10SM OVC013 14/12 A3045 RMK AO2 SLP314 T01390122
PAPH 171156Z AUTO 30005KT 10SM OVC011 13/12 A3045 RMK AO2 SLP314 T01330122 10133 20083 58009
PAPH 171056Z AUTO 00000KT 10SM OVC013 10/09 A3046 RMK AO2 SLP319 T01000089
PAPH 171011Z AUTO 29005KT 10SM BKN013 11/11 A3047 RMK AO2
PAPH 170956Z AUTO 00000KT 10SM SCT013 09/09 A3047 RMK AO2 SLP322 T00890089
PAPH 170856Z AUTO 28005KT 10SM CLR 12/11 A3048 RMK AO2 SLP323 T01170106 58008
PAPH 170756Z AUTO 29005KT 10SM CLR 12/11 A3049 RMK AO2 SLP328 T01220111 401720089
PAPH 170656Z AUTO 29005KT 10SM CLR 12/11 A3049 RMK AO2 SLP329 T01220106
PAPH 170556Z AUTO 30006KT 10SM CLR 13/11 A3050 RMK AO2 SLP331 T01330111 10172 20133 56006
PAPH 170456Z AUTO 31009KT 10SM CLR 15/12 A3050 RMK AO2 SLP331 T01500117
PAPH 170356Z AUTO 31008KT 10SM CLR 16/12 A3051 RMK AO2 SLP336 T01560117